SMZO/ORG METAR and TAF weather

Enter ICAO airport designator
Station Type Date Time Source
SMZO METAR 2020/04/02 22:00 UTC NOAA

SMZO 022200Z 04004KT 9999 VCSH SCT010 SCT020 26/24 Q1012 NOSIG


Station Type Date Time Source
SMZO Decoded METAR 2020/04/02 22:00 UTC NOAA

Station name not available
Apr 02, 2020 - 06:00 PM EDT / 2020.04.02 2200 UTC
Wind: from the NE (040 degrees) at 5 MPH (4 KT):0
Visibility: greater than 7 mile(s):0
Sky conditions: partly cloudy
Weather: showers in the vicinity
Temperature: 78 F (26 C)
Dew Point: 75 F (24 C)
Relative Humidity: 88%
Pressure (altimeter): 29.88 in. Hg (1012 hPa)
ob: SMZO 022200Z 04004KT 9999 VCSH SCT010 SCT020 26/24 Q1012 NOSIG
cycle: 22

Station Type Date Time Source
SMZO TAF 2020/04/03 06:09 UTC NOAA

TAF TAF SMZO 030400Z 0306/0406 VRB02KT 8000 SCT015 TX31/0318Z TN23/0309Z
FM031200 06008KT 9999 FEW015 SCT030
TEMPO 0314/0322 5000 SHRA FEW015TCU SCT020

Example: see airport list